首页
METAR-TAF:

METAR-TAF

机场 :

莫斯塔爾, 波斯尼亚和黑塞哥维那

纬度: 43-21N, 经度: 017-48E, 海拔: 108米

当前天气观测

该预报发布于8分钟前的06:00 UTC
风速2节,风向多变
温度 16°C
湿度 88%
气压 1016 hPa
能見度: 7000
少量云层高于3000英尺
阴天层高于4000英尺
小雨

METAR: LQMO 230600Z VRB02KT 7000 -RA FEW030 OVC040 16/14 Q1016

时间: 08:08 (06:08 UTC)

预报

该预报发布于1小时和8分钟前的05:00 UTC
预报有效从23日的 06点(UTC)到 24日的 06点(UTC)
风速5节,风向南转南东
能见度10公里或以上
散云层高于4000英尺
多云层高于7000英尺
几率 40% :
短暂存在
从 23日的 06点(UTC)到 23日的 14点(UTC)
几率 30% :
短暂存在
从 23日的 18点(UTC)到 24日的 00点(UTC)
风速15节,风向多变
能見度: 5000
少量云层高于3300英尺, 积雨云.
多云层高于4000英尺
雷暴, 雨
短暂存在
从 23日的 20点(UTC)到 23日的 24点(UTC)

TAF: LQMO 230500Z 2306/2406 16005KT 9999 SCT040 BKN070 TX22/2313Z TN16/2405Z PROB40 TEMPO 2306/2314 RA PROB30 TEMPO 2318/2400 VRB15KT 5000 TSRA FEW033CB BKN040 TEMPO 2320/2324 RA

超过4000个机场的气象观测和天气预报(METAR&TAF报告)。

可查询的气象台以黄色和红色小点在地图上表示。

将鼠标移到小点上方,可查看气象台名称。

然后点击查看天气观测和预报。

如需切换地图:点击带黑十字的绿色按钮放大地图;点击带横线的绿色按钮缩小地图;或者点击绿色箭头查看邻近地区的地图。


METAR-TAF: